Terminal Aerodrome Forecast
Issued by NWS

Home | Current Version | Previous Version | Text Only | Print | Product List | Glossary On
Versions: 1 2 3 4 5 6 7 8 9 10 11 12 13 14 15 16 17 18
000
FTUS45 KSLC 091628 AAC
TAFEVW
TAF AMD
KEVW 091628Z 0916/1012 21012KT 2SM -SN BR BKN004 OVC011
      TEMPO 0916/0918 1/2SM -SN FG VV002
     FM091900 23016KT 1SM -SN BR VV004
     FM092200 23013G20KT 5SM BR VCSH BKN006 OVC010
     FM100500 24015G25KT P6SM BKN015 OVC030=

USA.gov is the U.S. government's official web portal to all federal, state and local government web resources and services.